CX455 YSSY-YMML
Flight info
| Callsign | CX455 |
|---|---|
| Flight time | 1h 0m |
| Altitude | 32000 |
| Route | WOL2/34L WOL H65 LEECE Q29 ML |
| Aircraft | B77W/H-SDE1E2E3FGHIJ2J3J4J5M1RWXY/LB1D1 |
Departure
| Time | 2026-05-01 08:01 |
|---|---|
| Airport | Sydney Kingsford Smith International Airport (YSSY) |
Arrival
| Time | 2026-05-01 09:01 |
|---|---|
| Airport | Melbourne Airport (YMML) |
| Time | Latitude | Longitude | Altitude | Speed | Heading |
|---|---|---|---|---|---|
| 2026-05-01 07:23 | -33.93979 | 151.16678 | 26 ft | 0 kts | 304° |
| 2026-05-01 07:47 | -33.93981 | 151.16681 | 26 ft | 3 kts | 308° |
| 2026-05-01 07:47 | -33.93994 | 151.16698 | 32 ft | 3 kts | 325° |
| 2026-05-01 07:48 | -33.94031 | 151.16714 | 31 ft | 3 kts | 0° |
| 2026-05-01 07:48 | -33.94050 | 151.16712 | 31 ft | 3 kts | 17° |
| 2026-05-01 07:48 | -33.94067 | 151.16703 | 31 ft | 3 kts | 34° |
| 2026-05-01 07:49 | -33.94082 | 151.16688 | 32 ft | 3 kts | 51° |
| 2026-05-01 07:49 | -33.94091 | 151.16672 | 30 ft | 0 kts | 67° |
| 2026-05-01 07:52 | -33.94081 | 151.16726 | 32 ft | 13 kts | 81° |
| 2026-05-01 07:52 | -33.94055 | 151.16858 | 28 ft | 17 kts | 75° |
| 2026-05-01 07:52 | -33.94025 | 151.16992 | 29 ft | 17 kts | 74° |
| 2026-05-01 07:53 | -33.93987 | 151.17204 | 28 ft | 8 kts | 115° |
| 2026-05-01 07:53 | -33.94034 | 151.17238 | 31 ft | 8 kts | 162° |
| 2026-05-01 07:53 | -33.94093 | 151.17256 | 27 ft | 11 kts | 167° |
| 2026-05-01 07:53 | -33.94203 | 151.17285 | 27 ft | 20 kts | 168° |
| 2026-05-01 07:54 | -33.94476 | 151.17355 | 31 ft | 20 kts | 168° |
| 2026-05-01 07:55 | -33.94903 | 151.17466 | 26 ft | 23 kts | 168° |
| 2026-05-01 07:55 | -33.95217 | 151.17546 | 24 ft | 23 kts | 168° |
| 2026-05-01 07:56 | -33.95690 | 151.17671 | 29 ft | 23 kts | 168° |
| 2026-05-01 07:56 | -33.96006 | 151.17752 | 28 ft | 23 kts | 168° |
| 2026-05-01 07:57 | -33.96164 | 151.17793 | 28 ft | 23 kts | 167° |
| 2026-05-01 07:57 | -33.96410 | 151.17872 | 28 ft | 9 kts | 145° |
| 2026-05-01 07:58 | -33.96414 | 151.17876 | 28 ft | 0 kts | 141° |
| 2026-05-01 07:59 | -33.96415 | 151.17877 | 28 ft | 1 kts | 139° |
| 2026-05-01 07:59 | -33.96424 | 151.18022 | 29 ft | 11 kts | 78° |
| 2026-05-01 08:00 | -33.95983 | 151.17949 | 28 ft | 104 kts | 348° |
| 2026-05-01 08:01 | -33.92492 | 151.16990 | 2413 ft | 194 kts | 343° |
| 2026-05-01 08:01 | -33.91393 | 151.15862 | 2839 ft | 223 kts | 304° |
| 2026-05-01 08:01 | -33.90628 | 151.14227 | 3731 ft | 226 kts | 303° |
| 2026-05-01 08:02 | -33.89000 | 151.11003 | 4990 ft | 227 kts | 304° |
| 2026-05-01 08:02 | -33.88148 | 151.09368 | 5070 ft | 233 kts | 304° |
| 2026-05-01 08:03 | -33.86410 | 151.06086 | 6840 ft | 231 kts | 305° |
| 2026-05-01 08:03 | -33.85539 | 151.04452 | 7719 ft | 233 kts | 305° |
| 2026-05-01 08:03 | -33.85110 | 151.00675 | 9206 ft | 249 kts | 242° |
| 2026-05-01 08:04 | -33.87987 | 150.98256 | 10365 ft | 282 kts | 195° |
| 2026-05-01 08:04 | -33.92200 | 150.97038 | 10855 ft | 345 kts | 192° |
| 2026-05-01 08:05 | -33.97202 | 150.95714 | 12088 ft | 381 kts | 192° |
| 2026-05-01 08:05 | -33.99806 | 150.95008 | 13219 ft | 384 kts | 192° |
| 2026-05-01 08:05 | -34.02433 | 150.94284 | 14308 ft | 391 kts | 193° |
| 2026-05-01 08:06 | -34.07800 | 150.92780 | 16379 ft | 401 kts | 193° |
| 2026-05-01 08:06 | -34.13304 | 150.91222 | 18416 ft | 410 kts | 193° |
| 2026-05-01 08:07 | -34.18948 | 150.89619 | 20124 ft | 423 kts | 193° |
| 2026-05-01 08:07 | -34.24749 | 150.87969 | 21836 ft | 433 kts | 194° |
| 2026-05-01 08:08 | -34.27697 | 150.87130 | 22707 ft | 437 kts | 194° |
| 2026-05-01 08:08 | -34.33705 | 150.85417 | 24258 ft | 449 kts | 194° |
| 2026-05-01 08:09 | -34.39833 | 150.83669 | 25660 ft | 457 kts | 194° |
| 2026-05-01 08:09 | -34.42947 | 150.82779 | 26312 ft | 462 kts | 194° |
| 2026-05-01 08:09 | -34.46091 | 150.81880 | 26946 ft | 467 kts | 194° |
| 2026-05-01 08:10 | -34.52438 | 150.79942 | 28107 ft | 474 kts | 201° |
| 2026-05-01 08:10 | -34.57932 | 150.75587 | 29556 ft | 472 kts | 227° |
| 2026-05-01 08:11 | -34.61866 | 150.69338 | 31079 ft | 466 kts | 236° |
| 2026-05-01 08:11 | -34.65578 | 150.62974 | 32328 ft | 464 kts | 236° |
| 2026-05-01 08:12 | -34.71269 | 150.53383 | 32386 ft | 479 kts | 236° |
| 2026-05-01 08:13 | -34.77225 | 150.43441 | 32382 ft | 487 kts | 236° |
| 2026-05-01 08:13 | -34.83214 | 150.33418 | 32375 ft | 488 kts | 236° |
| 2026-05-01 08:14 | -34.87177 | 150.26763 | 32375 ft | 488 kts | 236° |
| 2026-05-01 08:14 | -34.91164 | 150.20057 | 32370 ft | 488 kts | 236° |
| 2026-05-01 08:15 | -34.97123 | 150.10008 | 32374 ft | 487 kts | 236° |
| 2026-05-01 08:16 | -35.01088 | 150.03307 | 32370 ft | 487 kts | 236° |
| 2026-05-01 08:16 | -35.05044 | 149.96607 | 32369 ft | 486 kts | 236° |
| 2026-05-01 08:17 | -35.09000 | 149.89906 | 32371 ft | 486 kts | 236° |
| 2026-05-01 08:17 | -35.12951 | 149.83207 | 32362 ft | 486 kts | 236° |
| 2026-05-01 08:18 | -35.16898 | 149.76501 | 32365 ft | 485 kts | 237° |
| 2026-05-01 08:19 | -35.24724 | 149.63160 | 32364 ft | 485 kts | 237° |
| 2026-05-01 08:19 | -35.28629 | 149.56485 | 32361 ft | 484 kts | 237° |
| 2026-05-01 08:20 | -35.32546 | 149.49777 | 32360 ft | 484 kts | 237° |
| 2026-05-01 08:20 | -35.36456 | 149.43065 | 32352 ft | 484 kts | 237° |
| 2026-05-01 08:21 | -35.40364 | 149.36350 | 32356 ft | 483 kts | 237° |
| 2026-05-01 08:21 | -35.44263 | 149.29631 | 32352 ft | 483 kts | 237° |
| 2026-05-01 08:22 | -35.48119 | 149.22974 | 32354 ft | 483 kts | 237° |
| 2026-05-01 08:22 | -35.52008 | 149.16250 | 32353 ft | 483 kts | 237° |
| 2026-05-01 08:23 | -35.55895 | 149.09514 | 32356 ft | 483 kts | 237° |
| 2026-05-01 08:23 | -35.59118 | 149.03921 | 32363 ft | 483 kts | 237° |
| 2026-05-01 08:24 | -35.62986 | 148.97195 | 32371 ft | 482 kts | 237° |
| 2026-05-01 08:24 | -35.66854 | 148.90455 | 32365 ft | 482 kts | 237° |
| 2026-05-01 08:25 | -35.70717 | 148.83713 | 32374 ft | 482 kts | 237° |
| 2026-05-01 08:25 | -35.74573 | 148.76968 | 32372 ft | 481 kts | 237° |
| 2026-05-01 08:26 | -35.78422 | 148.70222 | 32370 ft | 481 kts | 237° |
| 2026-05-01 08:26 | -35.82276 | 148.63456 | 32370 ft | 481 kts | 237° |
| 2026-05-01 08:27 | -35.86054 | 148.56809 | 32365 ft | 481 kts | 237° |
| 2026-05-01 08:27 | -35.89888 | 148.50044 | 32364 ft | 480 kts | 238° |
| 2026-05-01 08:28 | -35.93656 | 148.43345 | 32360 ft | 479 kts | 238° |
| 2026-05-01 08:28 | -35.97448 | 148.36587 | 32365 ft | 478 kts | 238° |
| 2026-05-01 08:29 | -36.01231 | 148.29834 | 32350 ft | 478 kts | 238° |
| 2026-05-01 08:29 | -36.05018 | 148.23063 | 32345 ft | 477 kts | 238° |
| 2026-05-01 08:30 | -36.08790 | 148.16306 | 32342 ft | 477 kts | 238° |
| 2026-05-01 08:30 | -36.12556 | 148.09548 | 32338 ft | 477 kts | 238° |
| 2026-05-01 08:31 | -36.16305 | 148.02838 | 32330 ft | 477 kts | 238° |
| 2026-05-01 08:31 | -36.20076 | 147.96082 | 32324 ft | 476 kts | 238° |
| 2026-05-01 08:32 | -36.23828 | 147.89342 | 32330 ft | 475 kts | 238° |
| 2026-05-01 08:32 | -36.27570 | 147.82604 | 32324 ft | 474 kts | 238° |
| 2026-05-01 08:33 | -36.31308 | 147.75860 | 32318 ft | 474 kts | 238° |
| 2026-05-01 08:33 | -36.35032 | 147.69127 | 32324 ft | 473 kts | 238° |
| 2026-05-01 08:34 | -36.38747 | 147.62389 | 32318 ft | 472 kts | 238° |
| 2026-05-01 08:34 | -36.42447 | 147.55658 | 32315 ft | 472 kts | 238° |
| 2026-05-01 08:35 | -36.46142 | 147.48924 | 32322 ft | 471 kts | 238° |
| 2026-05-01 08:35 | -36.49804 | 147.42239 | 32321 ft | 470 kts | 238° |
| 2026-05-01 08:36 | -36.53478 | 147.35519 | 32321 ft | 470 kts | 237° |
| 2026-05-01 08:36 | -36.57143 | 147.28800 | 32320 ft | 469 kts | 237° |
| 2026-05-01 08:37 | -36.60800 | 147.22085 | 32317 ft | 468 kts | 237° |
| 2026-05-01 08:37 | -36.64455 | 147.15356 | 32326 ft | 468 kts | 237° |
| 2026-05-01 08:38 | -36.68102 | 147.08633 | 32324 ft | 468 kts | 237° |
| 2026-05-01 08:38 | -36.71723 | 147.01946 | 32320 ft | 468 kts | 237° |
| 2026-05-01 08:39 | -36.75362 | 146.95224 | 32326 ft | 468 kts | 237° |
| 2026-05-01 08:39 | -36.79005 | 146.88485 | 32320 ft | 467 kts | 237° |
| 2026-05-01 08:40 | -36.84451 | 146.78382 | 32324 ft | 467 kts | 237° |
| 2026-05-01 08:40 | -36.88076 | 146.71637 | 32310 ft | 467 kts | 237° |
| 2026-05-01 08:41 | -36.91675 | 146.64927 | 32320 ft | 467 kts | 237° |
| 2026-05-01 08:41 | -36.95290 | 146.58175 | 32317 ft | 467 kts | 238° |
| 2026-05-01 08:42 | -36.97100 | 146.54790 | 31857 ft | 473 kts | 237° |
| 2026-05-01 08:42 | -36.98945 | 146.51332 | 30939 ft | 479 kts | 237° |
| 2026-05-01 08:42 | -37.00794 | 146.47866 | 30102 ft | 477 kts | 237° |
| 2026-05-01 08:42 | -37.02628 | 146.44428 | 29342 ft | 471 kts | 237° |
| 2026-05-01 08:43 | -37.04437 | 146.41031 | 28675 ft | 465 kts | 238° |
| 2026-05-01 08:43 | -37.06218 | 146.37684 | 28018 ft | 460 kts | 238° |
| 2026-05-01 08:43 | -37.07982 | 146.34366 | 27368 ft | 456 kts | 238° |
| 2026-05-01 08:43 | -37.09711 | 146.31106 | 26723 ft | 452 kts | 238° |
| 2026-05-01 08:44 | -37.11441 | 146.27839 | 26095 ft | 448 kts | 239° |
| 2026-05-01 08:44 | -37.13157 | 146.24592 | 25476 ft | 445 kts | 239° |
| 2026-05-01 08:44 | -37.14864 | 146.21357 | 24854 ft | 443 kts | 239° |
| 2026-05-01 08:44 | -37.16560 | 146.18141 | 24222 ft | 442 kts | 239° |
| 2026-05-01 08:45 | -37.18251 | 146.14931 | 23545 ft | 441 kts | 239° |
| 2026-05-01 08:45 | -37.19937 | 146.11729 | 22911 ft | 438 kts | 239° |
| 2026-05-01 08:45 | -37.21608 | 146.08554 | 22316 ft | 433 kts | 239° |
| 2026-05-01 08:45 | -37.23262 | 146.05406 | 21704 ft | 430 kts | 239° |
| 2026-05-01 08:46 | -37.24902 | 146.02282 | 21106 ft | 427 kts | 239° |
| 2026-05-01 08:46 | -37.26529 | 145.99180 | 20510 ft | 424 kts | 239° |
| 2026-05-01 08:46 | -37.28144 | 145.96098 | 19913 ft | 421 kts | 239° |
| 2026-05-01 08:46 | -37.29749 | 145.93032 | 19329 ft | 418 kts | 239° |
| 2026-05-01 08:47 | -37.31345 | 145.89985 | 18745 ft | 416 kts | 239° |
| 2026-05-01 08:47 | -37.32934 | 145.86957 | 18078 ft | 414 kts | 239° |
| 2026-05-01 08:47 | -37.34518 | 145.83945 | 17474 ft | 411 kts | 239° |
| 2026-05-01 08:47 | -37.36088 | 145.80959 | 16870 ft | 408 kts | 239° |
| 2026-05-01 08:48 | -37.37627 | 145.78026 | 16301 ft | 405 kts | 239° |
| 2026-05-01 08:48 | -37.39173 | 145.75075 | 15729 ft | 402 kts | 239° |
| 2026-05-01 08:48 | -37.40705 | 145.72144 | 15162 ft | 400 kts | 239° |
| 2026-05-01 08:48 | -37.42174 | 145.69333 | 14612 ft | 397 kts | 239° |
| 2026-05-01 08:49 | -37.43707 | 145.66400 | 14025 ft | 395 kts | 239° |
| 2026-05-01 08:49 | -37.45215 | 145.63514 | 13419 ft | 392 kts | 239° |
| 2026-05-01 08:49 | -37.46776 | 145.60708 | 12763 ft | 392 kts | 236° |
| 2026-05-01 08:49 | -37.48402 | 145.57950 | 12096 ft | 392 kts | 235° |
| 2026-05-01 08:50 | -37.50037 | 145.55206 | 11511 ft | 389 kts | 235° |
| 2026-05-01 08:50 | -37.51631 | 145.52508 | 10974 ft | 375 kts | 236° |
| 2026-05-01 08:50 | -37.53130 | 145.49940 | 10820 ft | 352 kts | 236° |
| 2026-05-01 08:50 | -37.54532 | 145.47529 | 10647 ft | 329 kts | 236° |
| 2026-05-01 08:51 | -37.55847 | 145.45261 | 10517 ft | 315 kts | 237° |
| 2026-05-01 08:51 | -37.57120 | 145.43061 | 10382 ft | 306 kts | 237° |
| 2026-05-01 08:51 | -37.58354 | 145.40929 | 10257 ft | 297 kts | 237° |
| 2026-05-01 08:51 | -37.59554 | 145.38857 | 10126 ft | 288 kts | 237° |
| 2026-05-01 08:52 | -37.60695 | 145.36882 | 9973 ft | 281 kts | 237° |
| 2026-05-01 08:52 | -37.61842 | 145.34896 | 9659 ft | 280 kts | 237° |
| 2026-05-01 08:52 | -37.62986 | 145.32911 | 9353 ft | 278 kts | 237° |
| 2026-05-01 08:52 | -37.64123 | 145.30937 | 9035 ft | 279 kts | 237° |
| 2026-05-01 08:53 | -37.65271 | 145.28946 | 8746 ft | 282 kts | 237° |
| 2026-05-01 08:53 | -37.66433 | 145.26931 | 8438 ft | 286 kts | 237° |
| 2026-05-01 08:53 | -37.67599 | 145.24905 | 8053 ft | 293 kts | 237° |
| 2026-05-01 08:53 | -37.68807 | 145.22806 | 7703 ft | 297 kts | 237° |
| 2026-05-01 08:54 | -37.70002 | 145.20735 | 7363 ft | 287 kts | 237° |
| 2026-05-01 08:54 | -37.71162 | 145.18720 | 7036 ft | 282 kts | 237° |
| 2026-05-01 08:54 | -37.72314 | 145.16715 | 6732 ft | 282 kts | 238° |
| 2026-05-01 08:54 | -37.73463 | 145.14713 | 6400 ft | 281 kts | 237° |
| 2026-05-01 08:55 | -37.74606 | 145.12723 | 6100 ft | 276 kts | 237° |
| 2026-05-01 08:55 | -37.75723 | 145.10777 | 6002 ft | 269 kts | 238° |
| 2026-05-01 08:55 | -37.76817 | 145.08870 | 5828 ft | 271 kts | 238° |
| 2026-05-01 08:55 | -37.77927 | 145.06932 | 5504 ft | 272 kts | 238° |
| 2026-05-01 08:56 | -37.79034 | 145.04997 | 5190 ft | 271 kts | 238° |
| 2026-05-01 08:56 | -37.80123 | 145.03098 | 4869 ft | 264 kts | 238° |
| 2026-05-01 08:56 | -37.81176 | 145.01210 | 4578 ft | 257 kts | 244° |
| 2026-05-01 08:56 | -37.81735 | 144.99136 | 4362 ft | 246 kts | 264° |
| 2026-05-01 08:57 | -37.82064 | 144.97022 | 4287 ft | 242 kts | 263° |
| 2026-05-01 08:57 | -37.82416 | 144.94969 | 4159 ft | 235 kts | 263° |
| 2026-05-01 08:57 | -37.82712 | 144.92942 | 3865 ft | 234 kts | 266° |
| 2026-05-01 08:57 | -37.82956 | 144.90948 | 3660 ft | 230 kts | 267° |
| 2026-05-01 08:58 | -37.82985 | 144.88997 | 3487 ft | 215 kts | 292° |
| 2026-05-01 08:58 | -37.82247 | 144.87475 | 3357 ft | 197 kts | 323° |
| 2026-05-01 08:58 | -37.81122 | 144.86537 | 3058 ft | 193 kts | 342° |
| 2026-05-01 08:58 | -37.79820 | 144.86143 | 2647 ft | 194 kts | 354° |
| 2026-05-01 08:59 | -37.78504 | 144.85904 | 2503 ft | 183 kts | 354° |
| 2026-05-01 08:59 | -37.77273 | 144.85685 | 2355 ft | 178 kts | 355° |
| 2026-05-01 08:59 | -37.76039 | 144.85474 | 2083 ft | 176 kts | 355° |
| 2026-05-01 08:59 | -37.74865 | 144.85276 | 1881 ft | 166 kts | 356° |
| 2026-05-01 09:00 | -37.73754 | 144.85102 | 1565 ft | 155 kts | 356° |
| 2026-05-01 09:00 | -37.72701 | 144.84896 | 1192 ft | 151 kts | 354° |
| 2026-05-01 09:00 | -37.71676 | 144.84687 | 1060 ft | 150 kts | 353° |
| 2026-05-01 09:00 | -37.70630 | 144.84461 | 950 ft | 159 kts | 355° |
| 2026-05-01 09:01 | -37.69545 | 144.84275 | 721 ft | 151 kts | 355° |
| 2026-05-01 09:01 | -37.68549 | 144.84090 | 433 ft | 139 kts | 353° |
| 2026-05-01 09:01 | -37.67631 | 144.83935 | 376 ft | 123 kts | 352° |
| 2026-05-01 09:01 | -37.67047 | 144.83816 | 397 ft | 41 kts | 3° |
| 2026-05-01 09:02 | -37.66859 | 144.83903 | 399 ft | 16 kts | 23° |
| 2026-05-01 09:02 | -37.66808 | 144.83929 | 400 ft | 0 kts | 21° |
| 2026-05-01 09:03 | -37.66798 | 144.83934 | 400 ft | 4 kts | 21° |
| 2026-05-01 09:03 | -37.66769 | 144.83954 | 403 ft | 11 kts | 37° |
| 2026-05-01 09:03 | -37.66709 | 144.84118 | 407 ft | 25 kts | 79° |
| 2026-05-01 09:03 | -37.66687 | 144.84299 | 405 ft | 18 kts | 84° |
| 2026-05-01 09:04 | -37.66677 | 144.84382 | 406 ft | 2 kts | 81° |
| 2026-05-01 09:04 | -37.66676 | 144.84401 | 406 ft | 2 kts | 92° |
| 2026-05-01 09:04 | -37.66709 | 144.84448 | 411 ft | 14 kts | 161° |
| 2026-05-01 09:04 | -37.66779 | 144.84456 | 410 ft | 0 kts | 177° |